createdAt,value
2022-07-30T00:02:10.900Z,16.01
2022-07-30T00:04:38.945Z,16.03
2022-07-30T00:07:07.075Z,16.04
2022-07-30T00:09:36.390Z,16.05
2022-07-30T00:12:06.022Z,16.06
2022-07-30T00:14:37.728Z,16.06
2022-07-30T00:17:05.870Z,16.07
2022-07-30T00:19:34.573Z,16.08
2022-07-30T00:22:03.795Z,16.09
2022-07-30T00:24:31.958Z,16.12
2022-07-30T00:27:00.286Z,16.14
2022-07-30T00:29:28.513Z,16.16
2022-07-30T00:31:56.991Z,16.17
2022-07-30T00:34:25.267Z,16.19
2022-07-30T00:36:53.540Z,16.19
2022-07-30T00:39:21.669Z,16.21
2022-07-30T00:42:00.681Z,16.21
2022-07-30T00:44:29.321Z,16.21
2022-07-30T00:46:58.624Z,16.21
2022-07-30T00:49:27.513Z,16.19
2022-07-30T00:51:55.792Z,16.17
2022-07-30T00:54:24.173Z,16.13
2022-07-30T00:56:52.439Z,16.09
2022-07-30T00:59:20.477Z,16.08
2022-07-30T01:01:48.632Z,16.05
2022-07-30T01:04:16.628Z,16.02
2022-07-30T01:06:44.825Z,15.98
2022-07-30T01:09:13.047Z,15.97
2022-07-30T01:11:42.530Z,15.95
2022-07-30T01:14:10.906Z,15.94
2022-07-30T01:16:42.850Z,15.92
2022-07-30T01:19:45.918Z,15.93
2022-07-30T01:22:30.671Z,15.92
2022-07-30T01:25:01.837Z,15.90
2022-07-30T01:27:43.269Z,15.91
2022-07-30T01:30:14.738Z,15.90
2022-07-30T01:32:45.387Z,15.91
2022-07-30T01:35:15.621Z,15.90
2022-07-30T01:37:45.637Z,15.89
2022-07-30T01:40:14.959Z,15.88
2022-07-30T01:42:45.160Z,15.87
2022-07-30T01:45:14.616Z,15.87
2022-07-30T01:47:43.857Z,15.87
2022-07-30T01:50:14.591Z,15.86
2022-07-30T01:52:45.993Z,15.84
2022-07-30T01:55:20.869Z,15.83
2022-07-30T01:57:49.794Z,15.80
2022-07-30T02:00:18.605Z,15.79
2022-07-30T02:02:46.930Z,15.78
2022-07-30T02:05:15.507Z,15.79
2022-07-30T02:07:56.630Z,15.77
2022-07-30T02:10:36.818Z,15.79
2022-07-30T02:13:07.618Z,15.79
2022-07-30T02:15:43.952Z,15.78
2022-07-30T02:18:23.880Z,15.78
2022-07-30T02:21:07.828Z,15.77
2022-07-30T02:23:43.831Z,15.76
2022-07-30T02:26:19.643Z,15.74
2022-07-30T02:28:52.773Z,15.72
2022-07-30T02:31:25.230Z,15.72
2022-07-30T02:33:58.353Z,15.70
2022-07-30T02:36:28.976Z,15.69
2022-07-30T02:38:59.504Z,15.67
2022-07-30T02:41:29.666Z,15.66
2022-07-30T02:43:59.600Z,15.64
2022-07-30T02:46:31.405Z,15.62
2022-07-30T02:49:30.641Z,15.63
2022-07-30T02:52:00.003Z,15.63
2022-07-30T02:54:31.238Z,15.62
2022-07-30T02:57:02.364Z,15.64
2022-07-30T02:59:33.849Z,15.64
2022-07-30T03:02:05.020Z,15.64
2022-07-30T03:04:34.044Z,15.63
2022-07-30T03:07:07.903Z,15.63
2022-07-30T03:09:51.285Z,15.64
2022-07-30T03:12:22.799Z,15.63
2022-07-30T03:14:52.822Z,15.64
2022-07-30T03:17:24.213Z,15.65
2022-07-30T03:19:55.098Z,15.66
2022-07-30T03:22:31.209Z,15.68
2022-07-30T03:25:02.915Z,15.68
2022-07-30T03:27:31.359Z,15.70
2022-07-30T03:30:02.651Z,15.71
2022-07-30T03:32:32.398Z,15.73
2022-07-30T03:35:06.165Z,15.75
2022-07-30T03:37:37.735Z,15.79
2022-07-30T03:40:07.673Z,15.83
2022-07-30T03:42:36.362Z,15.88
2022-07-30T03:45:08.119Z,15.94
2022-07-30T03:47:39.106Z,15.99
2022-07-30T03:50:08.355Z,16.04
2022-07-30T03:52:40.877Z,16.09
2022-07-30T03:55:12.521Z,16.16
2022-07-30T03:58:03.914Z,16.23
2022-07-30T04:00:32.888Z,16.30
2022-07-30T04:03:01.113Z,16.38
2022-07-30T04:05:56.119Z,16.46
2022-07-30T04:08:24.844Z,16.54
2022-07-30T04:10:55.838Z,16.65
2022-07-30T04:13:44.390Z,16.76
2022-07-30T04:16:39.112Z,16.85
2022-07-30T04:19:16.797Z,16.98
2022-07-30T04:21:46.736Z,17.27
2022-07-30T04:24:17.737Z,17.72
2022-07-30T04:26:47.703Z,18.35
2022-07-30T04:29:21.375Z,19.16
2022-07-30T04:31:57.008Z,20.06
2022-07-30T04:34:49.628Z,20.87
2022-07-30T04:37:23.552Z,21.28
2022-07-30T04:39:57.823Z,21.82
2022-07-30T04:42:27.519Z,22.60
2022-07-30T04:45:04.213Z,23.45
2022-07-30T04:47:58.481Z,24.22
2022-07-30T04:50:49.337Z,24.96
2022-07-30T04:53:19.998Z,25.53
2022-07-30T04:55:53.913Z,26.07
2022-07-30T04:58:24.002Z,26.40
2022-07-30T05:00:55.701Z,26.62
2022-07-30T05:03:30.069Z,26.80
2022-07-30T05:06:01.016Z,26.95
2022-07-30T05:08:32.213Z,27.07
2022-07-30T05:11:02.732Z,27.14
2022-07-30T05:13:34.545Z,27.31
2022-07-30T05:16:06.649Z,27.49
2022-07-30T05:18:34.760Z,27.68
2022-07-30T05:21:02.856Z,27.88
2022-07-30T05:23:35.823Z,28.11
2022-07-30T05:26:21.478Z,28.28
2022-07-30T05:28:55.153Z,28.37
2022-07-30T05:31:28.167Z,28.62
2022-07-30T05:34:03.542Z,29.01
2022-07-30T05:36:39.156Z,29.28
2022-07-30T05:39:07.223Z,29.45
2022-07-30T05:41:58.473Z,29.53
2022-07-30T05:44:42.567Z,29.39
2022-07-30T05:47:10.796Z,29.26
2022-07-30T05:49:39.019Z,29.40
2022-07-30T05:52:09.698Z,29.57
2022-07-30T05:54:37.898Z,29.65
2022-07-30T05:57:15.387Z,29.69
2022-07-30T05:59:44.153Z,29.79
2022-07-30T06:02:25.238Z,29.66
2022-07-30T06:04:53.561Z,29.45
2022-07-30T06:07:21.988Z,29.35
2022-07-30T06:09:50.148Z,29.32
2022-07-30T06:12:18.140Z,29.14
2022-07-30T06:14:46.356Z,29.02
2022-07-30T06:17:17.851Z,28.74
2022-07-30T06:20:06.850Z,28.50
2022-07-30T06:22:43.462Z,28.21
2022-07-30T06:25:18.564Z,27.89
2022-07-30T06:27:47.115Z,27.62
2022-07-30T06:30:15.574Z,27.34
2022-07-30T06:32:45.852Z,26.98
2022-07-30T06:35:18.024Z,26.68
2022-07-30T06:37:57.681Z,26.45
2022-07-30T06:40:35.542Z,26.27
2022-07-30T06:43:10.031Z,26.30
2022-07-30T06:45:51.023Z,26.35
2022-07-30T06:48:27.064Z,26.50
2022-07-30T06:50:55.234Z,26.56
2022-07-30T06:53:24.233Z,26.59
2022-07-30T06:56:13.672Z,26.58
2022-07-30T06:58:46.154Z,26.57
2022-07-30T07:01:46.626Z,26.51
2022-07-30T07:04:15.817Z,26.47
2022-07-30T07:06:43.970Z,26.51
2022-07-30T07:09:14.093Z,26.60
2022-07-30T07:12:00.576Z,26.77
2022-07-30T07:14:28.866Z,26.85
2022-07-30T07:16:56.986Z,26.89
2022-07-30T07:20:00.960Z,26.93
2022-07-30T07:22:32.445Z,26.93
2022-07-30T07:25:00.674Z,26.84
2022-07-30T07:27:31.715Z,26.76
2022-07-30T07:30:06.066Z,26.64
2022-07-30T07:32:36.974Z,26.49
2022-07-30T07:35:06.317Z,26.43
2022-07-30T07:37:36.074Z,26.31
2022-07-30T07:40:05.516Z,26.21
2022-07-30T07:42:36.511Z,26.11
2022-07-30T07:45:06.637Z,25.99
2022-07-30T07:47:51.840Z,25.83
2022-07-30T07:50:40.572Z,25.67
2022-07-30T07:53:10.491Z,25.55
2022-07-30T07:55:38.960Z,25.53
2022-07-30T07:58:07.674Z,25.54
2022-07-30T08:00:36.605Z,25.43
2022-07-30T08:03:04.739Z,25.32
2022-07-30T08:05:59.036Z,25.17
2022-07-30T08:08:42.477Z,25.05
2022-07-30T08:11:29.378Z,24.96
2022-07-30T08:14:19.964Z,24.89
2022-07-30T08:17:10.901Z,24.78
2022-07-30T08:20:03.403Z,24.67
2022-07-30T08:22:31.602Z,24.62
2022-07-30T08:24:59.725Z,24.56
2022-07-30T08:27:27.830Z,24.49
2022-07-30T08:29:57.305Z,24.48
2022-07-30T08:32:26.641Z,24.46
2022-07-30T08:34:54.672Z,24.43
2022-07-30T08:37:23.491Z,24.42
2022-07-30T08:39:52.346Z,24.42
2022-07-30T08:42:20.583Z,24.41
2022-07-30T08:44:48.737Z,24.41
2022-07-30T08:47:19.643Z,24.35
2022-07-30T08:50:08.797Z,24.26
2022-07-30T08:52:39.734Z,24.19
2022-07-30T08:55:09.249Z,24.17
2022-07-30T08:57:37.665Z,24.22
2022-07-30T09:00:10.269Z,24.27
2022-07-30T09:02:38.310Z,24.39
2022-07-30T09:05:10.101Z,24.49
2022-07-30T09:07:38.969Z,24.63
2022-07-30T09:10:09.469Z,24.74
2022-07-30T09:12:44.559Z,24.85
2022-07-30T09:15:19.711Z,25.01
2022-07-30T09:18:02.527Z,25.13
2022-07-30T09:20:34.905Z,25.25
2022-07-30T09:23:06.499Z,25.35
2022-07-30T09:25:53.339Z,25.43
2022-07-30T09:28:39.918Z,25.51
2022-07-30T09:31:22.069Z,25.61
2022-07-30T09:34:34.278Z,25.69
2022-07-30T09:37:18.119Z,25.78
2022-07-30T09:40:18.256Z,25.94
2022-07-30T09:43:12.516Z,26.08
2022-07-30T09:45:56.672Z,26.08
2022-07-30T09:48:27.608Z,26.05
2022-07-30T09:50:57.601Z,25.97
2022-07-30T09:53:26.499Z,25.95
2022-07-30T09:55:54.763Z,25.99
2022-07-30T09:58:27.423Z,26.03
2022-07-30T10:01:01.568Z,26.09
2022-07-30T10:03:52.732Z,26.06
2022-07-30T10:06:41.921Z,26.03
2022-07-30T10:09:29.788Z,25.99
2022-07-30T10:12:04.242Z,25.96
2022-07-30T10:14:42.401Z,25.94
2022-07-30T10:17:13.980Z,25.95
2022-07-30T10:19:46.080Z,26.01
2022-07-30T10:22:36.040Z,26.07
2022-07-30T10:25:49.724Z,26.13
2022-07-30T10:28:43.648Z,26.21
2022-07-30T10:31:47.381Z,26.16
2022-07-30T10:34:00.667Z,26.11
2022-07-30T10:36:29.796Z,26.06
2022-07-30T10:38:58.739Z,26.09
2022-07-30T10:42:15.071Z,26.07
2022-07-30T10:44:55.145Z,25.87
2022-07-30T10:47:29.837Z,25.72
2022-07-30T10:50:15.629Z,25.57
2022-07-30T10:52:47.572Z,25.46
2022-07-30T10:55:16.781Z,25.34
2022-07-30T10:58:09.317Z,25.30
2022-07-30T11:00:52.977Z,25.24
2022-07-30T11:03:40.397Z,25.20
2022-07-30T11:06:15.465Z,25.13
2022-07-30T11:08:48.135Z,25.05
2022-07-30T11:12:00.064Z,24.98
2022-07-30T11:14:12.179Z,24.88
2022-07-30T11:16:42.255Z,24.82
2022-07-30T11:19:57.032Z,24.81
2022-07-30T11:22:27.397Z,24.84
2022-07-30T11:24:56.798Z,24.84
2022-07-30T11:27:48.443Z,24.83
2022-07-30T11:30:17.507Z,24.81
2022-07-30T11:32:54.382Z,24.79
2022-07-30T11:35:26.440Z,24.79
2022-07-30T11:38:08.034Z,24.75
2022-07-30T11:40:40.201Z,24.71
2022-07-30T11:43:36.077Z,24.70
2022-07-30T11:46:28.649Z,24.70
2022-07-30T11:49:08.851Z,24.70
2022-07-30T11:51:47.851Z,24.71
2022-07-30T11:54:16.231Z,24.69
2022-07-30T11:56:52.599Z,24.68
2022-07-30T11:59:21.365Z,24.70
2022-07-30T12:01:51.220Z,24.68
2022-07-30T12:04:19.734Z,24.65
2022-07-30T12:06:48.920Z,24.62
2022-07-30T12:09:27.518Z,24.64
2022-07-30T12:11:57.092Z,24.67
2022-07-30T12:14:25.370Z,24.65
2022-07-30T12:16:55.024Z,24.61
2022-07-30T12:19:23.064Z,24.61
2022-07-30T12:21:53.566Z,24.63
2022-07-30T12:24:26.993Z,24.65
2022-07-30T12:27:06.045Z,24.66
2022-07-30T12:29:35.837Z,24.67
2022-07-30T12:32:04.224Z,24.69
2022-07-30T12:34:32.260Z,24.69
2022-07-30T12:37:10.571Z,24.64
2022-07-30T12:39:38.717Z,24.59
2022-07-30T12:42:20.424Z,24.57
2022-07-30T12:44:50.473Z,24.55
2022-07-30T12:47:24.090Z,24.53
2022-07-30T12:49:54.310Z,24.54
2022-07-30T12:52:29.324Z,24.55
2022-07-30T12:55:09.423Z,24.56
2022-07-30T12:57:57.898Z,24.51
2022-07-30T13:00:48.406Z,24.49
2022-07-30T13:03:20.782Z,24.49
2022-07-30T13:05:51.299Z,24.52
2022-07-30T13:08:46.798Z,24.50
2022-07-30T13:11:16.034Z,24.46
2022-07-30T13:13:44.128Z,24.45
2022-07-30T13:16:12.403Z,24.46
2022-07-30T13:18:40.994Z,24.46
2022-07-30T13:21:10.030Z,24.45
2022-07-30T13:23:40.402Z,24.41
2022-07-30T13:26:10.407Z,24.38
2022-07-30T13:28:38.689Z,24.37
2022-07-30T13:31:07.880Z,24.38
2022-07-30T13:33:37.455Z,24.40
2022-07-30T13:36:07.232Z,24.38
2022-07-30T13:38:35.432Z,24.36
2022-07-30T13:41:05.182Z,24.31
2022-07-30T13:43:33.913Z,24.29
2022-07-30T13:46:06.122Z,24.30
2022-07-30T13:48:35.928Z,24.32
2022-07-30T13:51:05.456Z,24.33
2022-07-30T13:53:33.680Z,24.32
2022-07-30T13:56:01.908Z,24.32
2022-07-30T13:58:35.725Z,24.31
2022-07-30T14:01:07.374Z,24.29
2022-07-30T14:03:35.856Z,24.25
2022-07-30T14:06:10.390Z,24.22
2022-07-30T14:08:39.998Z,24.17
2022-07-30T14:11:08.625Z,24.13
2022-07-30T14:13:36.705Z,24.11
2022-07-30T14:16:10.762Z,24.11
2022-07-30T14:18:51.153Z,24.11
2022-07-30T14:21:19.326Z,24.09
2022-07-30T14:23:48.121Z,24.07
2022-07-30T14:26:16.393Z,24.06
2022-07-30T14:28:44.457Z,24.04
2022-07-30T14:31:12.628Z,24.02
2022-07-30T14:33:40.818Z,24.01
2022-07-30T14:36:08.976Z,24.02
2022-07-30T14:38:40.039Z,24.01
2022-07-30T14:41:08.999Z,23.97
2022-07-30T14:43:37.180Z,23.93
2022-07-30T14:46:05.405Z,23.90
2022-07-30T14:48:33.420Z,23.89
2022-07-30T14:51:22.958Z,23.87
2022-07-30T14:53:50.812Z,23.85
2022-07-30T14:56:19.790Z,23.83
2022-07-30T14:58:48.130Z,23.80
2022-07-30T15:01:17.091Z,23.76
2022-07-30T15:03:46.409Z,23.73
2022-07-30T15:06:15.613Z,23.70
2022-07-30T15:08:43.909Z,23.67
2022-07-30T15:11:11.842Z,23.66
2022-07-30T15:13:41.744Z,23.65
2022-07-30T15:16:20.005Z,23.65
2022-07-30T15:18:48.023Z,23.65
2022-07-30T15:21:16.479Z,23.65
2022-07-30T15:23:44.576Z,23.64
2022-07-30T15:26:12.611Z,23.64
2022-07-30T15:28:40.949Z,23.62
2022-07-30T15:31:09.077Z,23.61
2022-07-30T15:33:42.062Z,23.62
2022-07-30T15:36:10.695Z,23.61
2022-07-30T15:38:39.461Z,23.58
2022-07-30T15:41:13.040Z,23.57
2022-07-30T15:43:41.729Z,23.56
2022-07-30T15:46:09.917Z,23.56
2022-07-30T15:48:38.174Z,23.55
2022-07-30T15:51:07.165Z,23.54
2022-07-30T15:53:35.500Z,23.51
2022-07-30T15:56:04.776Z,23.47
2022-07-30T15:58:33.892Z,23.43
2022-07-30T16:01:02.545Z,23.40
2022-07-30T16:03:31.209Z,23.36
2022-07-30T16:05:59.223Z,23.32
2022-07-30T16:08:27.381Z,23.27
2022-07-30T16:10:55.560Z,23.24
2022-07-30T16:13:23.727Z,23.22
2022-07-30T16:15:51.901Z,23.18
2022-07-30T16:18:20.073Z,23.15
2022-07-30T16:20:48.272Z,23.14
2022-07-30T16:23:21.134Z,23.10
2022-07-30T16:25:49.923Z,23.07
2022-07-30T16:28:18.096Z,23.04
2022-07-30T16:30:50.666Z,23.00
2022-07-30T16:33:20.287Z,22.96
2022-07-30T16:35:50.938Z,22.91
2022-07-30T16:38:20.419Z,22.86
2022-07-30T16:40:48.543Z,22.81
2022-07-30T16:43:19.807Z,22.77
2022-07-30T16:45:48.847Z,22.72
2022-07-30T16:48:16.900Z,22.69
2022-07-30T16:50:45.687Z,22.66
2022-07-30T16:53:14.747Z,22.62
2022-07-30T16:55:44.185Z,22.59
2022-07-30T16:58:12.533Z,22.54
2022-07-30T17:00:40.905Z,22.50
2022-07-30T17:03:09.414Z,22.46
2022-07-30T17:05:45.103Z,22.42
2022-07-30T17:08:14.192Z,22.38
2022-07-30T17:10:42.527Z,22.35
2022-07-30T17:13:12.014Z,22.29
2022-07-30T17:15:40.410Z,22.22
2022-07-30T17:18:08.999Z,22.15
2022-07-30T17:20:37.132Z,22.07
2022-07-30T17:23:05.394Z,22.00
2022-07-30T17:25:33.609Z,21.94
2022-07-30T17:28:02.589Z,21.87
2022-07-30T17:30:31.327Z,21.77
2022-07-30T17:32:59.666Z,21.71
2022-07-30T17:35:28.064Z,21.64
2022-07-30T17:37:56.221Z,21.56
2022-07-30T17:40:28.416Z,21.49
2022-07-30T17:43:04.207Z,21.41
2022-07-30T17:45:34.528Z,21.32
2022-07-30T17:48:03.295Z,21.24
2022-07-30T17:50:32.794Z,21.17
2022-07-30T17:53:03.650Z,21.10
2022-07-30T17:55:35.323Z,21.02
2022-07-30T17:58:05.155Z,20.96
2022-07-30T18:00:35.410Z,20.88
2022-07-30T18:03:04.209Z,20.81
2022-07-30T18:05:32.316Z,20.75
2022-07-30T18:08:00.333Z,20.69
2022-07-30T18:10:28.447Z,20.63
2022-07-30T18:12:56.404Z,20.58
2022-07-30T18:15:24.568Z,20.52
2022-07-30T18:17:52.525Z,20.48
2022-07-30T18:20:21.088Z,20.41
2022-07-30T18:22:51.750Z,20.35
2022-07-30T18:25:19.975Z,20.31
2022-07-30T18:27:48.182Z,20.25
2022-07-30T18:30:16.286Z,20.21
2022-07-30T18:32:45.546Z,20.17
2022-07-30T18:35:15.153Z,20.15
2022-07-30T18:37:44.834Z,20.11
2022-07-30T18:40:14.947Z,20.07
2022-07-30T18:42:43.249Z,20.06
2022-07-30T18:45:14.992Z,20.02
2022-07-30T18:47:44.633Z,19.99
2022-07-30T18:50:14.456Z,19.95
2022-07-30T18:52:42.568Z,19.92
2022-07-30T18:55:12.205Z,19.89
2022-07-30T18:57:41.337Z,19.86
2022-07-30T19:00:31.097Z,19.84
2022-07-30T19:03:00.826Z,19.81
2022-07-30T19:05:29.568Z,19.79
2022-07-30T19:07:58.934Z,19.76
2022-07-30T19:10:27.595Z,19.74
2022-07-30T19:12:56.060Z,19.70
2022-07-30T19:15:25.295Z,19.66
2022-07-30T19:17:53.693Z,19.64
2022-07-30T19:20:23.510Z,19.60
2022-07-30T19:22:53.541Z,19.59
2022-07-30T19:25:21.587Z,19.57
2022-07-30T19:27:49.683Z,19.55
2022-07-30T19:30:17.930Z,19.52
2022-07-30T19:32:46.205Z,19.50
2022-07-30T19:35:14.671Z,19.46
2022-07-30T19:37:43.096Z,19.43
2022-07-30T19:40:12.859Z,19.42
2022-07-30T19:42:41.686Z,19.38
2022-07-30T19:45:12.170Z,19.35
2022-07-30T19:47:42.765Z,19.32
2022-07-30T19:50:11.779Z,19.29
2022-07-30T19:52:40.597Z,19.27
2022-07-30T19:55:35.333Z,19.27
2022-07-30T19:58:16.246Z,19.24
2022-07-30T20:00:48.495Z,19.21
2022-07-30T20:03:26.034Z,19.19
2022-07-30T20:06:00.832Z,19.15
2022-07-30T20:08:29.233Z,19.13
2022-07-30T20:10:59.436Z,19.10
2022-07-30T20:13:45.557Z,19.08
2022-07-30T20:16:17.323Z,19.04
2022-07-30T20:18:46.633Z,19.02
2022-07-30T20:21:16.668Z,18.99
2022-07-30T20:23:45.426Z,18.96
2022-07-30T20:26:15.135Z,18.94
2022-07-30T20:28:52.577Z,18.90
2022-07-30T20:31:21.806Z,18.88
2022-07-30T20:33:50.771Z,18.84
2022-07-30T20:36:19.643Z,18.84
2022-07-30T20:38:49.416Z,18.80
2022-07-30T20:41:17.775Z,18.77
2022-07-30T20:43:51.793Z,18.73
2022-07-30T20:46:23.120Z,18.71
2022-07-30T20:48:52.899Z,18.67
2022-07-30T20:51:20.990Z,18.63
2022-07-30T20:53:49.348Z,18.60
2022-07-30T20:56:19.265Z,18.58
2022-07-30T21:01:38.862Z,18.51
2022-07-30T21:04:07.270Z,18.47
2022-07-30T21:06:42.591Z,18.45
2022-07-30T21:09:15.193Z,18.42
2022-07-30T21:11:50.291Z,18.40
2022-07-30T21:14:20.651Z,18.36
2022-07-30T21:16:50.446Z,18.35
2022-07-30T21:19:21.261Z,18.34
2022-07-30T21:21:51.821Z,18.32
2022-07-30T21:24:20.375Z,18.32
2022-07-30T21:26:49.820Z,18.31
2022-07-30T21:29:19.273Z,18.30
2022-07-30T21:32:02.273Z,18.30
2022-07-30T21:34:35.873Z,18.30
2022-07-30T21:37:08.816Z,18.29
2022-07-30T21:39:39.834Z,18.29
2022-07-30T21:42:09.579Z,18.28
2022-07-30T21:44:38.575Z,18.26
2022-07-30T21:47:10.278Z,18.25
2022-07-30T21:49:39.746Z,18.23
2022-07-30T21:52:08.849Z,18.23
2022-07-30T21:54:48.220Z,18.22
2022-07-30T21:57:23.197Z,18.21
2022-07-30T21:59:55.218Z,18.19
2022-07-30T22:02:25.149Z,18.18
2022-07-30T22:04:54.089Z,18.17
2022-07-30T22:07:22.317Z,18.15
2022-07-30T22:09:50.513Z,18.14
2022-07-30T22:12:19.160Z,18.12
2022-07-30T22:14:49.624Z,18.11
2022-07-30T22:17:23.337Z,18.10
2022-07-30T22:20:08.843Z,18.08
2022-07-30T22:22:40.267Z,18.07
2022-07-30T22:25:09.552Z,18.04
2022-07-30T22:27:39.749Z,18.04
2022-07-30T22:30:27.029Z,18.03
2022-07-30T22:32:55.867Z,18.01
2022-07-30T22:35:33.523Z,18.00
2022-07-30T22:38:04.799Z,17.99
2022-07-30T22:40:33.450Z,17.98
2022-07-30T22:43:04.409Z,17.97
2022-07-30T22:45:48.994Z,17.96
2022-07-30T22:48:19.336Z,17.95
2022-07-30T22:50:53.781Z,17.94
2022-07-30T22:56:14.316Z,17.91
2022-07-30T22:59:00.079Z,17.91
2022-07-30T23:01:28.093Z,17.89
2022-07-30T23:03:56.066Z,17.89
2022-07-30T23:06:24.142Z,17.87
2022-07-30T23:08:52.124Z,17.86
2022-07-30T23:11:21.396Z,17.86
2022-07-30T23:12:30.760Z,17.92
2022-07-30T23:12:31.387Z,18.54
2022-07-30T23:13:54.093Z,17.84
2022-07-30T23:16:22.555Z,17.83
2022-07-30T23:18:50.729Z,17.82
2022-07-30T23:21:18.801Z,17.80
2022-07-30T23:23:47.050Z,17.79
2022-07-30T23:26:15.251Z,17.78
2022-07-30T23:28:43.319Z,17.79
2022-07-30T23:31:11.513Z,17.80
2022-07-30T23:33:40.801Z,17.81
2022-07-30T23:36:09.589Z,17.83
2022-07-30T23:38:37.959Z,17.83
2022-07-30T23:41:06.881Z,17.85
2022-07-30T23:43:35.222Z,17.86
2022-07-30T23:46:04.079Z,17.86
2022-07-30T23:48:37.752Z,17.89
2022-07-30T23:51:05.930Z,17.90
2022-07-30T23:53:34.010Z,17.91
2022-07-30T23:56:03.632Z,17.92
2022-07-30T23:58:31.681Z,17.93
